Terminal Aerodrome Forecast
Issued by NWS Charleston, SC

Home | Current Version | Previous Version | Text Only | Print | Product List | Glossary On
Versions: 1 2 3 4 5 6 7 8 9 10 11 12 13 14 15 16 17 18 19
000
FTUS42 KCHS 181100
TAFSAV
TAF
KSAV 181128Z 1812/1912 06013KT P6SM VCSH BKN015 OVC030
     FM181300 06015G21KT 6SM -SHRA SCT009 OVC025
     FM181700 06017G25KT 5SM RA SCT008 OVC013
     FM182100 08013G18KT 2SM +RA BR BKN008 OVC012
     FM190700 08012KT 5SM RA BR BKN006 OVC012=

USA.gov is the U.S. government's official web portal to all federal, state and local government web resources and services.